createdAt,value
2022-08-02T00:01:20.468Z,2.90
2022-08-02T00:03:47.788Z,1.67
2022-08-02T00:06:22.052Z,1.58
2022-08-02T00:08:49.518Z,1.45
2022-08-02T00:11:16.931Z,1.48
2022-08-02T00:13:44.193Z,1.40
2022-08-02T00:16:11.679Z,1.40
2022-08-02T00:18:45.095Z,1.60
2022-08-02T00:21:12.366Z,1.95
2022-08-02T00:24:04.999Z,1.67
2022-08-02T00:26:28.091Z,1.70
2022-08-02T00:28:58.597Z,1.20
2022-08-02T00:31:25.971Z,1.50
2022-08-02T00:34:27.023Z,1.50
2022-08-02T00:36:46.620Z,1.65
2022-08-02T00:39:35.282Z,1.50
2022-08-02T00:42:01.493Z,1.30
2022-08-02T00:44:28.895Z,1.45
2022-08-02T00:46:56.395Z,1.42
2022-08-02T00:49:27.869Z,1.60
2022-08-02T00:51:55.432Z,1.58
2022-08-02T00:54:23.267Z,1.30
2022-08-02T00:56:52.591Z,1.65
2022-08-02T00:59:20.371Z,1.45
2022-08-02T01:01:56.217Z,2.00
2022-08-02T01:04:30.934Z,1.80
2022-08-02T01:07:01.077Z,1.90
2022-08-02T01:09:28.678Z,1.80
2022-08-02T01:11:56.512Z,1.77
2022-08-02T01:14:25.326Z,1.90
2022-08-02T01:17:05.665Z,2.10
2022-08-02T01:20:10.011Z,1.90
2022-08-02T01:23:03.061Z,2.20
2022-08-02T01:25:52.322Z,2.08
2022-08-02T01:28:54.583Z,1.80
2022-08-02T01:31:33.726Z,1.88
2022-08-02T01:34:06.154Z,1.73
2022-08-02T01:36:40.320Z,2.00
2022-08-02T01:39:12.245Z,1.92
2022-08-02T01:41:58.978Z,1.60
2022-08-02T01:44:30.341Z,1.73
2022-08-02T01:47:03.942Z,1.77
2022-08-02T01:49:34.357Z,1.65
2022-08-02T01:52:22.001Z,1.45
2022-08-02T01:55:19.021Z,1.33
2022-08-02T01:57:53.834Z,1.02
2022-08-02T02:00:23.722Z,1.15
2022-08-02T02:03:02.919Z,1.15
2022-08-02T02:05:32.734Z,1.20
2022-08-02T02:08:26.989Z,1.23
2022-08-02T02:12:06.216Z,1.10
2022-08-02T02:14:14.673Z,1.50
2022-08-02T02:16:46.500Z,1.45
2022-08-02T02:19:20.928Z,1.27
2022-08-02T02:22:10.200Z,1.42
2022-08-02T02:24:38.944Z,1.60
2022-08-02T02:27:08.479Z,1.55
2022-08-02T02:29:43.959Z,1.17
2022-08-02T02:32:14.598Z,1.52
2022-08-02T02:34:45.483Z,1.38
2022-08-02T02:37:26.437Z,1.27
2022-08-02T02:39:58.162Z,1.50
2022-08-02T02:42:30.122Z,1.23
2022-08-02T02:44:59.268Z,1.40
2022-08-02T02:47:46.302Z,1.55
2022-08-02T02:50:14.153Z,1.23
2022-08-02T02:52:42.897Z,1.50
2022-08-02T02:55:11.457Z,1.30
2022-08-02T02:57:40.106Z,1.13
2022-08-02T03:00:10.549Z,1.35
2022-08-02T03:02:43.322Z,1.20
2022-08-02T03:05:12.768Z,1.02
2022-08-02T03:07:40.468Z,1.25
2022-08-02T03:10:08.497Z,1.20
2022-08-02T03:12:36.531Z,1.25
2022-08-02T03:15:15.191Z,1.42
2022-08-02T03:17:46.412Z,1.40
2022-08-02T03:20:18.793Z,1.35
2022-08-02T03:22:47.403Z,1.10
2022-08-02T03:25:15.583Z,1.30
2022-08-02T03:27:43.179Z,1.40
2022-08-02T03:30:12.723Z,1.67
2022-08-02T03:32:46.994Z,1.40
2022-08-02T03:35:20.023Z,1.27
2022-08-02T03:37:55.834Z,1.30
2022-08-02T03:40:23.763Z,1.25
2022-08-02T03:42:51.459Z,1.35
2022-08-02T03:45:19.608Z,1.20
2022-08-02T03:47:47.067Z,1.10
2022-08-02T03:50:14.969Z,1.20
2022-08-02T03:52:43.675Z,1.02
2022-08-02T03:55:12.769Z,1.20
2022-08-02T03:57:46.933Z,1.25
2022-08-02T04:00:20.481Z,1.02
2022-08-02T04:02:49.269Z,0.88
2022-08-02T04:05:17.765Z,1.40
2022-08-02T04:08:02.448Z,1.00
2022-08-02T04:10:54.033Z,1.00
2022-08-02T04:13:31.274Z,1.10
2022-08-02T04:16:15.764Z,0.90
2022-08-02T04:18:53.729Z,0.90
2022-08-02T04:21:22.517Z,1.10
2022-08-02T04:23:51.417Z,1.00
2022-08-02T04:26:26.850Z,1.23
2022-08-02T04:28:56.628Z,1.10
2022-08-02T04:31:24.361Z,1.30
2022-08-02T04:33:55.413Z,1.20
2022-08-02T04:36:31.259Z,1.25
2022-08-02T04:38:59.322Z,1.67
2022-08-02T04:41:44.473Z,1.50
2022-08-02T04:44:15.391Z,2.00
2022-08-02T04:46:45.048Z,1.60
2022-08-02T04:49:12.539Z,1.65
2022-08-02T04:51:42.147Z,1.55
2022-08-02T04:54:11.021Z,1.80
2022-08-02T04:56:39.128Z,1.30
2022-08-02T04:59:10.171Z,1.38
2022-08-02T05:01:39.217Z,1.27
2022-08-02T05:04:06.634Z,1.00
2022-08-02T05:06:34.143Z,1.23
2022-08-02T05:09:01.428Z,1.30
2022-08-02T05:11:34.395Z,1.25
2022-08-02T05:14:05.873Z,1.00
2022-08-02T05:16:33.572Z,0.98
2022-08-02T05:19:02.301Z,0.90
2022-08-02T05:21:33.988Z,1.13
2022-08-02T05:24:01.284Z,0.88
2022-08-02T05:26:28.788Z,1.00
2022-08-02T05:28:59.565Z,1.10
2022-08-02T05:31:27.029Z,0.90
2022-08-02T05:33:54.422Z,1.00
2022-08-02T05:36:47.071Z,1.00
2022-08-02T05:39:31.849Z,1.15
2022-08-02T05:42:09.084Z,1.00
2022-08-02T05:44:41.931Z,1.10
2022-08-02T05:47:14.892Z,1.38
2022-08-02T05:49:42.913Z,1.40
2022-08-02T05:52:18.695Z,1.70
2022-08-02T05:55:02.981Z,1.55
2022-08-02T05:57:53.396Z,1.27
2022-08-02T06:00:40.686Z,0.90
2022-08-02T06:03:39.490Z,0.60
2022-08-02T06:06:40.899Z,1.33
2022-08-02T06:09:14.724Z,0.82
2022-08-02T06:12:02.131Z,0.80
2022-08-02T06:14:43.284Z,0.60
2022-08-02T06:22:32.098Z,0.80
2022-08-02T06:24:46.229Z,0.65
2022-08-02T06:27:16.597Z,0.82
2022-08-02T06:29:44.449Z,0.70
2022-08-02T06:32:12.040Z,0.68
2022-08-02T06:34:40.292Z,0.70
2022-08-02T06:40:13.816Z,0.90
2022-08-02T06:47:11.218Z,0.95
2022-08-02T06:50:07.335Z,0.80
2022-08-02T06:52:58.960Z,0.85
2022-08-02T06:55:27.763Z,0.80
2022-08-02T06:57:59.286Z,0.70
2022-08-02T07:04:54.443Z,1.05
2022-08-02T07:12:12.510Z,0.95
2022-08-02T07:14:40.120Z,1.00
2022-08-02T07:17:07.527Z,1.10
2022-08-02T07:19:37.773Z,1.17
2022-08-02T07:23:11.632Z,1.50
2022-08-02T07:31:48.572Z,1.30
2022-08-02T07:34:15.957Z,1.13
2022-08-02T07:37:11.210Z,1.10
2022-08-02T07:39:57.099Z,1.27
2022-08-02T07:43:33.598Z,1.10
2022-08-02T07:46:01.243Z,1.42
2022-08-02T07:48:28.749Z,1.20
2022-08-02T07:50:56.116Z,1.23
2022-08-02T07:53:50.187Z,1.08
2022-08-02T07:56:17.943Z,1.23
2022-08-02T07:59:29.077Z,0.90
2022-08-02T08:02:10.601Z,1.20
2022-08-02T08:04:38.041Z,1.30
2022-08-02T08:07:06.186Z,1.02
2022-08-02T08:09:33.515Z,1.42
2022-08-02T08:12:00.862Z,1.20
2022-08-02T08:14:31.024Z,1.10
2022-08-02T08:17:07.058Z,1.00
2022-08-02T08:19:51.906Z,1.10
2022-08-02T08:22:20.719Z,0.90
2022-08-02T08:24:48.905Z,1.35
2022-08-02T08:27:29.724Z,1.13
2022-08-02T08:29:57.209Z,1.30
2022-08-02T08:36:08.167Z,1.20
2022-08-02T08:38:41.612Z,1.38
2022-08-02T08:41:24.079Z,1.20
2022-08-02T08:44:28.284Z,1.55
2022-08-02T08:46:58.292Z,1.15
2022-08-02T08:49:52.981Z,0.90
2022-08-02T08:52:50.841Z,1.65
2022-08-02T08:55:18.813Z,1.20
2022-08-02T08:57:55.457Z,1.30
2022-08-02T09:00:22.870Z,1.17
2022-08-02T09:02:50.475Z,1.30
2022-08-02T09:08:30.213Z,1.58
2022-08-02T09:11:01.517Z,1.38
2022-08-02T09:13:45.299Z,1.10
2022-08-02T09:16:51.112Z,1.35
2022-08-02T09:19:19.005Z,1.45
2022-08-02T09:22:13.870Z,1.10
2022-08-02T09:25:24.189Z,1.30
2022-08-02T09:27:54.444Z,1.08
2022-08-02T09:33:29.301Z,1.10
2022-08-02T09:36:08.725Z,1.17
2022-08-02T09:38:41.794Z,1.30
2022-08-02T09:41:21.722Z,1.73
2022-08-02T09:44:18.012Z,1.45
2022-08-02T09:46:46.696Z,1.52
2022-08-02T09:49:19.824Z,1.58
2022-08-02T09:52:00.991Z,1.38
2022-08-02T09:55:05.492Z,1.40
2022-08-02T09:57:36.320Z,1.20
2022-08-02T10:04:06.262Z,1.33
2022-08-02T10:06:37.426Z,1.00
2022-08-02T10:09:06.053Z,1.25
2022-08-02T10:11:36.827Z,1.17
2022-08-02T10:14:06.001Z,1.08
2022-08-02T10:16:36.063Z,0.95
2022-08-02T10:20:00.590Z,1.15
2022-08-02T10:22:28.180Z,1.40
2022-08-02T10:25:01.051Z,1.02
2022-08-02T10:27:55.160Z,1.05
2022-08-02T10:30:21.393Z,1.30
2022-08-02T10:33:00.437Z,1.10
2022-08-02T10:35:29.344Z,0.88
2022-08-02T10:40:57.704Z,1.10
2022-08-02T10:43:37.301Z,1.40
2022-08-02T10:46:29.354Z,1.60
2022-08-02T10:49:37.369Z,1.35
2022-08-02T10:52:07.702Z,1.67
2022-08-02T10:54:43.943Z,1.25
2022-08-02T10:57:23.067Z,1.20
2022-08-02T11:00:22.670Z,1.08
2022-08-02T11:02:53.548Z,1.20
2022-08-02T11:05:43.342Z,1.38
2022-08-02T11:08:22.077Z,1.20
2022-08-02T11:10:49.510Z,1.20
2022-08-02T11:13:19.502Z,1.10
2022-08-02T11:15:57.211Z,1.48
2022-08-02T11:18:50.402Z,1.20
2022-08-02T11:21:32.032Z,1.35
2022-08-02T11:24:31.762Z,1.10
2022-08-02T11:27:01.024Z,1.00
2022-08-02T11:29:48.946Z,1.10
2022-08-02T11:32:31.092Z,1.50
2022-08-02T11:34:59.158Z,1.40
2022-08-02T11:37:34.694Z,1.10
2022-08-02T11:40:03.696Z,1.00
2022-08-02T11:42:41.508Z,1.38
2022-08-02T11:45:10.473Z,1.42
2022-08-02T11:47:50.359Z,1.30
2022-08-02T11:50:20.387Z,1.40
2022-08-02T11:53:21.663Z,1.38
2022-08-02T11:55:57.572Z,1.17
2022-08-02T11:58:25.173Z,1.17
2022-08-02T12:00:58.884Z,0.98
2022-08-02T12:03:34.055Z,0.95
2022-08-02T12:09:18.866Z,1.10
2022-08-02T12:12:09.895Z,1.15
2022-08-02T12:14:44.206Z,1.10
2022-08-02T12:17:52.014Z,1.10
2022-08-02T12:20:34.614Z,1.38
2022-08-02T12:23:08.254Z,0.88
2022-08-02T12:25:35.953Z,1.08
2022-08-02T12:28:29.283Z,1.10
2022-08-02T12:30:58.539Z,1.13
2022-08-02T12:34:10.581Z,1.00
2022-08-02T12:36:39.910Z,1.25
2022-08-02T12:39:14.328Z,1.30
2022-08-02T12:42:04.544Z,1.10
2022-08-02T12:45:01.444Z,0.82
2022-08-02T12:47:35.968Z,1.20
2022-08-02T12:50:34.759Z,0.90
2022-08-02T12:53:17.631Z,0.75
2022-08-02T12:56:03.703Z,0.60
2022-08-02T12:58:45.990Z,0.63
2022-08-02T13:01:24.009Z,0.90
2022-08-02T13:04:09.361Z,0.80
2022-08-02T13:06:46.367Z,0.70
2022-08-02T13:09:16.169Z,1.02
2022-08-02T13:11:44.543Z,0.68
2022-08-02T13:14:14.124Z,0.47
2022-08-02T13:16:54.497Z,0.55
2022-08-02T13:22:53.601Z,0.70
2022-08-02T13:25:22.797Z,0.70
2022-08-02T13:28:36.526Z,0.70
2022-08-02T13:31:39.351Z,0.70
2022-08-02T13:34:36.578Z,0.52
2022-08-02T13:37:05.050Z,0.93
2022-08-02T13:39:32.505Z,0.73
2022-08-02T13:41:59.973Z,0.80
2022-08-02T13:44:27.633Z,0.82
2022-08-02T13:46:57.234Z,1.20
2022-08-02T13:49:49.991Z,0.80
2022-08-02T13:55:26.168Z,0.60
2022-08-02T13:57:54.346Z,0.70
2022-08-02T14:00:47.624Z,0.80
2022-08-02T14:03:15.253Z,0.70
2022-08-02T14:05:47.756Z,0.98
2022-08-02T14:08:22.801Z,0.95
2022-08-02T14:10:51.106Z,0.80
2022-08-02T14:13:19.324Z,0.90
2022-08-02T14:15:47.785Z,0.90
2022-08-02T14:18:27.564Z,0.90
2022-08-02T14:20:54.887Z,1.23
2022-08-02T14:23:46.791Z,0.77
2022-08-02T14:26:33.799Z,0.90
2022-08-02T14:29:01.184Z,1.05
2022-08-02T14:31:53.775Z,0.80
2022-08-02T14:34:40.543Z,0.95
2022-08-02T14:37:07.958Z,0.80
2022-08-02T14:39:43.162Z,0.82
2022-08-02T14:46:11.686Z,0.70
2022-08-02T14:48:39.057Z,0.80
2022-08-02T14:52:14.905Z,0.80
2022-08-02T14:54:43.189Z,0.80
2022-08-02T15:01:26.160Z,0.80
2022-08-02T15:03:53.869Z,0.90
2022-08-02T15:09:49.739Z,0.80
2022-08-02T15:12:17.524Z,0.77
2022-08-02T15:14:59.432Z,0.85
2022-08-02T15:17:26.850Z,0.80
2022-08-02T15:20:34.764Z,1.10
2022-08-02T15:23:03.429Z,0.80
2022-08-02T15:25:31.879Z,0.90
2022-08-02T15:27:59.224Z,1.00
2022-08-02T15:30:29.155Z,0.80
2022-08-02T15:32:56.675Z,0.80
2022-08-02T15:35:39.155Z,0.73
2022-08-02T15:38:12.491Z,0.90
2022-08-02T15:40:39.884Z,1.00
2022-08-02T15:44:31.360Z,0.85
2022-08-02T15:46:58.751Z,1.08
2022-08-02T15:49:52.562Z,1.13
2022-08-02T15:52:19.972Z,0.90
2022-08-02T15:54:47.884Z,0.98
2022-08-02T15:57:15.198Z,0.90
2022-08-02T15:59:54.436Z,1.35
2022-08-02T16:02:47.890Z,0.70
2022-08-02T16:05:17.958Z,0.85
2022-08-02T16:08:13.596Z,1.00
2022-08-02T16:14:07.207Z,1.00
2022-08-02T16:16:37.997Z,0.77
2022-08-02T16:19:30.690Z,1.00
2022-08-02T16:22:05.280Z,1.13
2022-08-02T16:24:32.772Z,1.08
2022-08-02T16:27:00.108Z,1.20
2022-08-02T16:29:33.481Z,1.10
2022-08-02T16:32:11.467Z,1.10
2022-08-02T16:35:07.151Z,0.90
2022-08-02T16:37:51.508Z,0.90
2022-08-02T16:40:45.098Z,0.95
2022-08-02T16:43:37.537Z,0.85
2022-08-02T16:46:10.056Z,1.13
2022-08-02T16:48:37.678Z,1.00
2022-08-02T16:51:13.608Z,1.10
2022-08-02T16:54:15.742Z,0.90
2022-08-02T16:56:46.352Z,1.20
2022-08-02T16:59:14.667Z,1.20
2022-08-02T17:02:03.119Z,1.10
2022-08-02T17:04:29.495Z,1.02
2022-08-02T17:06:57.867Z,1.00
2022-08-02T17:10:03.302Z,1.33
2022-08-02T17:12:19.073Z,1.13
2022-08-02T17:14:56.066Z,0.95
2022-08-02T17:21:03.908Z,0.98
2022-08-02T17:26:59.605Z,0.80
2022-08-02T17:29:48.223Z,0.90
2022-08-02T17:32:18.894Z,0.90
2022-08-02T17:35:43.370Z,1.20
2022-08-02T17:38:26.103Z,0.90
2022-08-02T17:40:55.608Z,1.10
2022-08-02T17:43:29.165Z,1.02
2022-08-02T17:46:22.513Z,0.90
2022-08-02T17:49:13.906Z,0.98
2022-08-02T17:52:49.577Z,0.98
2022-08-02T17:54:28.717Z,0.88
2022-08-02T17:56:58.119Z,0.85
2022-08-02T18:00:03.639Z,1.00
2022-08-02T18:03:10.161Z,1.00
2022-08-02T18:06:37.096Z,1.00
2022-08-02T18:09:07.610Z,1.20
2022-08-02T18:11:52.026Z,0.88
2022-08-02T18:20:11.343Z,1.40
2022-08-02T18:22:39.705Z,1.05
2022-08-02T18:29:16.748Z,1.30
2022-08-02T18:31:50.800Z,1.00
2022-08-02T18:37:43.888Z,1.02
2022-08-02T18:40:13.865Z,1.00
2022-08-02T18:43:03.385Z,1.10
2022-08-02T18:46:07.347Z,1.50
2022-08-02T18:48:46.593Z,1.83
2022-08-02T18:54:47.165Z,1.20
2022-08-02T19:01:46.955Z,1.50
2022-08-02T19:04:27.343Z,1.23
2022-08-02T19:07:22.556Z,1.33
2022-08-02T19:09:55.270Z,1.27
2022-08-02T19:13:42.758Z,1.35
2022-08-02T19:16:38.828Z,2.05
2022-08-02T19:19:07.340Z,1.35
2022-08-02T19:22:18.830Z,1.30
2022-08-02T19:24:26.947Z,1.27
2022-08-02T19:27:32.550Z,1.20
2022-08-02T19:33:25.082Z,1.70
2022-08-02T19:36:01.730Z,1.70
2022-08-02T19:41:15.800Z,1.33
2022-08-02T19:44:24.293Z,1.63
2022-08-02T19:46:34.703Z,1.40
2022-08-02T19:51:55.610Z,1.50
2022-08-02T19:54:25.514Z,1.45
2022-08-02T19:57:17.048Z,1.00
2022-08-02T19:59:47.268Z,1.10
2022-08-02T20:02:18.247Z,1.20
2022-08-02T20:04:50.097Z,1.17
2022-08-02T20:07:54.376Z,1.33
2022-08-02T20:10:11.314Z,1.30
2022-08-02T20:12:48.239Z,1.60
2022-08-02T20:15:15.833Z,1.25
2022-08-02T20:17:47.473Z,1.33
2022-08-02T20:20:15.417Z,1.30
2022-08-02T20:23:01.774Z,1.25
2022-08-02T20:25:50.870Z,1.25
2022-08-02T20:28:22.097Z,1.10
2022-08-02T20:30:49.937Z,1.42
2022-08-02T20:33:56.097Z,1.30
2022-08-02T20:38:52.811Z,1.30
2022-08-02T20:41:37.339Z,1.33
2022-08-02T20:44:30.572Z,1.50
2022-08-02T20:46:59.040Z,1.13
2022-08-02T20:49:41.492Z,1.33
2022-08-02T20:52:23.920Z,1.30
2022-08-02T20:54:52.816Z,1.45
2022-08-02T20:57:48.524Z,1.20
2022-08-02T21:00:09.251Z,1.30
2022-08-02T21:02:44.927Z,1.35
2022-08-02T21:05:17.336Z,1.17
2022-08-02T21:07:58.992Z,1.50
2022-08-02T21:10:29.539Z,1.55
2022-08-02T21:19:10.577Z,1.40
2022-08-02T21:21:39.184Z,1.52
2022-08-02T21:24:11.332Z,1.38
2022-08-02T21:27:51.884Z,1.20
2022-08-02T21:29:54.687Z,1.42
2022-08-02T21:32:22.250Z,1.42
2022-08-02T21:34:58.991Z,1.67
2022-08-02T21:37:32.986Z,1.55
2022-08-02T21:40:08.146Z,1.50
2022-08-02T21:42:37.432Z,1.92
2022-08-02T21:45:17.510Z,1.90
2022-08-02T21:47:50.862Z,1.85
2022-08-02T21:50:18.319Z,1.75
2022-08-02T21:52:52.147Z,1.83
2022-08-02T21:55:21.211Z,1.60
2022-08-02T21:57:51.634Z,1.90
2022-08-02T22:00:28.334Z,2.00
2022-08-02T22:02:56.404Z,1.80
2022-08-02T22:08:33.987Z,1.85
2022-08-02T22:11:03.619Z,1.88
2022-08-02T22:13:38.814Z,2.60
2022-08-02T22:16:15.190Z,2.40
2022-08-02T22:24:30.054Z,1.70
2022-08-02T22:26:58.026Z,1.70
2022-08-02T22:29:25.657Z,2.08
2022-08-02T22:34:51.681Z,1.50
2022-08-02T22:38:15.392Z,1.73
2022-08-02T22:40:08.912Z,1.60
2022-08-02T22:42:40.138Z,1.92
2022-08-02T22:45:09.616Z,1.55
2022-08-02T22:47:38.910Z,1.70
2022-08-02T22:50:18.789Z,1.63
2022-08-02T22:52:52.461Z,1.42
2022-08-02T22:58:14.872Z,1.50
2022-08-02T22:58:53.231Z,1.05
2022-08-02T22:59:04.668Z,1.50
2022-08-02T23:00:47.242Z,1.48
2022-08-02T23:03:17.360Z,1.50
2022-08-02T23:05:44.824Z,1.45
2022-08-02T23:08:14.641Z,1.30
2022-08-02T23:10:42.182Z,1.30
2022-08-02T23:13:09.858Z,1.58
2022-08-02T23:15:59.632Z,1.50
2022-08-02T23:18:46.531Z,1.50
2022-08-02T23:21:13.955Z,1.55
2022-08-02T23:24:01.723Z,1.90
2022-08-02T23:26:29.627Z,1.73
2022-08-02T23:28:57.659Z,1.60
2022-08-02T23:31:29.034Z,1.52
2022-08-02T23:34:04.206Z,1.70
2022-08-02T23:36:32.730Z,1.75
2022-08-02T23:39:00.157Z,1.48
2022-08-02T23:41:27.729Z,1.45
2022-08-02T23:44:12.658Z,1.98
2022-08-02T23:46:43.076Z,1.80
2022-08-02T23:49:11.487Z,1.60
2022-08-02T23:51:38.953Z,1.60
2022-08-02T23:54:06.238Z,1.35
2022-08-02T23:56:33.493Z,1.52
2022-08-02T23:59:00.773Z,1.80
